Tropical Cyclones
[Index]
Main Index Home Page Stock Weather Photos Extreme Storms Discussion Storm News and Storm Chasing Reports Tropical Cyclones / Hurricanes / Typhoons Weather Data and Links Wild Fires / Bushfires Weather Observation Techniques Weather Picture Catalogue Tornado Pictures and Reports Stock Video Footage and DVDs for sale
Season 2012-2013 Tropical Cyclone 201318 Track Map
Season 2012-2013 Summaries: [BoM-AU] [JTWC-AU] [JTWC-SIO] [JTWC-SPAC] [JTWC-SH]
<<- Previous TC | JTWC 2012-2013 Season | Next TC ->>

click for intensity scale information  Lat/long Grid: Show Hide

 Date Labels: Show Hide

Joint Typhoon Warning Centre Cyclone Data

Name: 201318

22 Feb 2013 18:00 UTC to 27 Feb 2013 18:00 UTC

    date/time    lat    long     hPa   cat  kts
2013-02-22 18   13.2    99.9    1007         20          
2013-02-23 00   12.9    99.4    1007         20          
2013-02-23 06   12.7    98.8    1004         25          
2013-02-23 12   12.4    98.4    1004         25          
2013-02-23 18   11.5    98.5    1004         25          
2013-02-24 00   11.7    98.8    1004         25          
2013-02-24 06   12.5    98.5    1004         25          
2013-02-24 12   12.7    98.1     996         35          
2013-02-24 18   13.0    97.9     993    1    40          
2013-02-25 00   13.5    98.3     993    1    40          
2013-02-25 06   14.1    98.4     996         35          
2013-02-25 12   14.3    98.4     996         35          
2013-02-25 18   14.6    98.4     996         35          
2013-02-26 00   14.8    98.1     996         35          
2013-02-26 06   15.0    97.9     996         35          
2013-02-26 12   15.3    97.9    1000         30          
2013-02-26 18   15.3    98.1    1000         30          
2013-02-27 00   15.4    98.3    1000         30          
2013-02-27 06   15.5    98.4    1000         30          
2013-02-27 12   15.4    98.9    1004         25          
2013-02-27 18   15.2    99.6    1007         20          
Winds are 1-min average.

Tropical cyclone tracks developed by Michael Bath using data from the Joint Typhoon Warning Centre Best Tracks and Google Maps.


[Australian Severe Weather index] [Copyright Notice] [Email Contacts] [Search This Site] [Privacy Policy]
Document: tropical_cyclone_201318.htm Updated: 28 June 2017